sensor_id;sensor_type;location;lat;lon;timestamp;P1;durP1;ratioP1;P2;durP2;ratioP2
11823;SDS011;5969;50.780;7.726;2023-10-08T00:00:23;4.07;;;3.40;;
11823;SDS011;5969;50.780;7.726;2023-10-08T00:03:10;6.38;;;3.67;;
11823;SDS011;5969;50.780;7.726;2023-10-08T00:05:38;6.75;;;3.90;;
11823;SDS011;5969;50.780;7.726;2023-10-08T00:08:06;5.07;;;3.80;;
11823;SDS011;5969;50.780;7.726;2023-10-08T00:10:34;5.18;;;3.83;;
11823;SDS011;5969;50.780;7.726;2023-10-08T00:13:02;6.32;;;3.42;;
11823;SDS011;5969;50.780;7.726;2023-10-08T00:15:34;5.47;;;3.42;;
11823;SDS011;5969;50.780;7.726;2023-10-08T00:18:01;5.60;;;4.00;;
11823;SDS011;5969;50.780;7.726;2023-10-08T00:20:29;6.18;;;3.63;;
11823;SDS011;5969;50.780;7.726;2023-10-08T00:23:01;6.85;;;4.05;;
11823;SDS011;5969;50.780;7.726;2023-10-08T00:25:32;8.38;;;3.95;;
11823;SDS011;5969;50.780;7.726;2023-10-08T00:28:05;5.43;;;3.95;;
11823;SDS011;5969;50.780;7.726;2023-10-08T00:30:36;7.25;;;3.83;;
11823;SDS011;5969;50.780;7.726;2023-10-08T00:33:05;5.20;;;3.83;;
11823;SDS011;5969;50.780;7.726;2023-10-08T00:35:36;4.95;;;3.50;;
11823;SDS011;5969;50.780;7.726;2023-10-08T00:38:04;8.95;;;3.92;;
11823;SDS011;5969;50.780;7.726;2023-10-08T00:40:39;7.95;;;4.32;;
11823;SDS011;5969;50.780;7.726;2023-10-08T00:43:09;7.15;;;4.28;;
11823;SDS011;5969;50.780;7.726;2023-10-08T00:45:39;7.22;;;3.78;;
11823;SDS011;5969;50.780;7.726;2023-10-08T00:48:08;7.82;;;4.13;;
11823;SDS011;5969;50.780;7.726;2023-10-08T00:50:41;5.63;;;3.70;;
11823;SDS011;5969;50.780;7.726;2023-10-08T00:53:08;7.32;;;3.88;;
11823;SDS011;5969;50.780;7.726;2023-10-08T00:55:46;6.32;;;3.85;;
11823;SDS011;5969;50.780;7.726;2023-10-08T00:58:18;7.45;;;3.88;;
11823;SDS011;5969;50.780;7.726;2023-10-08T01:00:53;6.63;;;3.63;;
11823;SDS011;5969;50.780;7.726;2023-10-08T01:03:25;4.80;;;3.78;;
11823;SDS011;5969;50.780;7.726;2023-10-08T01:05:53;5.35;;;3.72;;
11823;SDS011;5969;50.780;7.726;2023-10-08T01:08:20;4.78;;;3.30;;
11823;SDS011;5969;50.780;7.726;2023-10-08T01:13:47;5.43;;;3.95;;
11823;SDS011;5969;50.780;7.726;2023-10-08T01:16:19;4.88;;;3.50;;
11823;SDS011;5969;50.780;7.726;2023-10-08T01:18:54;6.03;;;3.72;;
11823;SDS011;5969;50.780;7.726;2023-10-08T01:21:25;5.45;;;3.45;;
11823;SDS011;5969;50.780;7.726;2023-10-08T01:24:06;4.18;;;3.65;;
11823;SDS011;5969;50.780;7.726;2023-10-08T01:26:33;7.30;;;4.43;;
11823;SDS011;5969;50.780;7.726;2023-10-08T01:29:08;4.88;;;3.63;;
11823;SDS011;5969;50.780;7.726;2023-10-08T01:31:44;5.20;;;3.53;;
11823;SDS011;5969;50.780;7.726;2023-10-08T01:34:11;4.50;;;3.17;;
11823;SDS011;5969;50.780;7.726;2023-10-08T01:36:43;5.72;;;3.92;;
11823;SDS011;5969;50.780;7.726;2023-10-08T01:39:11;5.38;;;3.80;;
11823;SDS011;5969;50.780;7.726;2023-10-08T01:41:42;5.43;;;3.55;;
11823;SDS011;5969;50.780;7.726;2023-10-08T01:44:09;6.47;;;3.40;;
11823;SDS011;5969;50.780;7.726;2023-10-08T01:46:37;7.82;;;3.97;;
11823;SDS011;5969;50.780;7.726;2023-10-08T01:49:05;6.40;;;3.92;;
11823;SDS011;5969;50.780;7.726;2023-10-08T01:51:38;6.82;;;3.72;;
11823;SDS011;5969;50.780;7.726;2023-10-08T01:54:13;6.85;;;3.55;;
11823;SDS011;5969;50.780;7.726;2023-10-08T01:56:42;7.00;;;3.90;;
11823;SDS011;5969;50.780;7.726;2023-10-08T01:59:09;7.35;;;4.00;;
11823;SDS011;5969;50.780;7.726;2023-10-08T02:01:38;5.90;;;3.42;;
11823;SDS011;5969;50.780;7.726;2023-10-08T02:04:06;6.20;;;3.65;;
11823;SDS011;5969;50.780;7.726;2023-10-08T02:06:34;5.05;;;3.70;;
11823;SDS011;5969;50.780;7.726;2023-10-08T02:09:02;7.45;;;4.00;;
11823;SDS011;5969;50.780;7.726;2023-10-08T02:11:42;5.78;;;3.88;;
11823;SDS011;5969;50.780;7.726;2023-10-08T02:14:09;6.60;;;4.13;;
11823;SDS011;5969;50.780;7.726;2023-10-08T02:16:37;6.53;;;3.85;;
11823;SDS011;5969;50.780;7.726;2023-10-08T02:19:05;7.35;;;4.10;;
11823;SDS011;5969;50.780;7.726;2023-10-08T02:21:35;4.88;;;3.50;;
11823;SDS011;5969;50.780;7.726;2023-10-08T02:24:03;6.78;;;3.78;;
11823;SDS011;5969;50.780;7.726;2023-10-08T02:26:32;5.57;;;3.70;;
11823;SDS011;5969;50.780;7.726;2023-10-08T02:29:00;4.63;;;3.70;;
11823;SDS011;5969;50.780;7.726;2023-10-08T02:31:31;4.75;;;3.45;;
11823;SDS011;5969;50.780;7.726;2023-10-08T02:33:57;6.55;;;3.53;;
11823;SDS011;5969;50.780;7.726;2023-10-08T02:36:25;6.32;;;3.85;;
11823;SDS011;5969;50.780;7.726;2023-10-08T02:38:51;6.88;;;3.60;;
11823;SDS011;5969;50.780;7.726;2023-10-08T02:41:20;5.78;;;3.67;;
11823;SDS011;5969;50.780;7.726;2023-10-08T02:43:49;4.95;;;3.58;;
11823;SDS011;5969;50.780;7.726;2023-10-08T02:46:17;5.93;;;3.45;;
11823;SDS011;5969;50.780;7.726;2023-10-08T02:48:44;5.78;;;4.10;;
11823;SDS011;5969;50.780;7.726;2023-10-08T02:51:11;5.88;;;3.65;;
11823;SDS011;5969;50.780;7.726;2023-10-08T02:53:39;5.22;;;3.83;;
11823;SDS011;5969;50.780;7.726;2023-10-08T02:56:09;6.40;;;3.70;;
11823;SDS011;5969;50.780;7.726;2023-10-08T02:58:39;5.63;;;3.72;;
11823;SDS011;5969;50.780;7.726;2023-10-08T03:01:06;7.32;;;3.92;;
11823;SDS011;5969;50.780;7.726;2023-10-08T03:03:38;6.93;;;3.80;;
11823;SDS011;5969;50.780;7.726;2023-10-08T03:06:06;5.97;;;3.45;;
11823;SDS011;5969;50.780;7.726;2023-10-08T03:08:36;6.22;;;3.80;;
11823;SDS011;5969;50.780;7.726;2023-10-08T03:11:06;6.15;;;3.85;;
11823;SDS011;5969;50.780;7.726;2023-10-08T03:13:41;4.95;;;3.63;;
11823;SDS011;5969;50.780;7.726;2023-10-08T03:16:12;5.18;;;3.75;;
11823;SDS011;5969;50.780;7.726;2023-10-08T03:18:41;6.50;;;3.58;;
11823;SDS011;5969;50.780;7.726;2023-10-08T03:21:10;4.97;;;3.53;;
11823;SDS011;5969;50.780;7.726;2023-10-08T03:23:46;6.07;;;3.72;;
11823;SDS011;5969;50.780;7.726;2023-10-08T03:26:15;5.63;;;3.65;;
11823;SDS011;5969;50.780;7.726;2023-10-08T03:29:01;5.32;;;3.55;;
11823;SDS011;5969;50.780;7.726;2023-10-08T03:31:32;6.55;;;3.83;;
11823;SDS011;5969;50.780;7.726;2023-10-08T03:34:16;5.03;;;3.60;;
11823;SDS011;5969;50.780;7.726;2023-10-08T03:36:44;8.68;;;3.92;;
11823;SDS011;5969;50.780;7.726;2023-10-08T03:39:13;7.05;;;4.07;;
11823;SDS011;5969;50.780;7.726;2023-10-08T03:41:40;4.22;;;3.60;;
11823;SDS011;5969;50.780;7.726;2023-10-08T03:44:16;7.53;;;3.85;;
11823;SDS011;5969;50.780;7.726;2023-10-08T03:46:45;5.18;;;4.13;;
11823;SDS011;5969;50.780;7.726;2023-10-08T03:49:13;4.47;;;3.47;;
11823;SDS011;5969;50.780;7.726;2023-10-08T03:51:52;5.32;;;3.47;;
11823;SDS011;5969;50.780;7.726;2023-10-08T03:54:19;5.85;;;3.83;;
11823;SDS011;5969;50.780;7.726;2023-10-08T03:56:54;6.25;;;3.75;;
11823;SDS011;5969;50.780;7.726;2023-10-08T03:59:22;6.97;;;4.40;;
11823;SDS011;5969;50.780;7.726;2023-10-08T04:01:56;6.50;;;4.13;;
11823;SDS011;5969;50.780;7.726;2023-10-08T04:04:34;4.95;;;3.42;;
11823;SDS011;5969;50.780;7.726;2023-10-08T04:07:16;4.95;;;3.50;;
11823;SDS011;5969;50.780;7.726;2023-10-08T04:10:04;4.68;;;3.50;;
11823;SDS011;5969;50.780;7.726;2023-10-08T04:12:59;5.95;;;3.70;;
11823;SDS011;5969;50.780;7.726;2023-10-08T04:15:26;8.43;;;3.58;;
11823;SDS011;5969;50.780;7.726;2023-10-08T04:17:53;8.90;;;4.53;;
11823;SDS011;5969;50.780;7.726;2023-10-08T04:20:21;6.35;;;3.92;;
11823;SDS011;5969;50.780;7.726;2023-10-08T04:23:00;7.95;;;4.05;;
11823;SDS011;5969;50.780;7.726;2023-10-08T04:25:28;7.70;;;4.25;;
11823;SDS011;5969;50.780;7.726;2023-10-08T04:27:56;7.97;;;4.00;;
11823;SDS011;5969;50.780;7.726;2023-10-08T04:30:24;6.00;;;3.80;;
11823;SDS011;5969;50.780;7.726;2023-10-08T04:32:58;6.55;;;3.63;;
11823;SDS011;5969;50.780;7.726;2023-10-08T04:35:31;5.53;;;3.80;;
11823;SDS011;5969;50.780;7.726;2023-10-08T04:38:02;4.97;;;3.70;;
11823;SDS011;5969;50.780;7.726;2023-10-08T04:40:29;6.63;;;4.00;;
11823;SDS011;5969;50.780;7.726;2023-10-08T04:43:04;6.35;;;3.88;;
11823;SDS011;5969;50.780;7.726;2023-10-08T04:45:35;8.63;;;4.18;;
11823;SDS011;5969;50.780;7.726;2023-10-08T04:48:03;8.23;;;4.18;;
11823;SDS011;5969;50.780;7.726;2023-10-08T04:50:34;6.13;;;3.95;;
11823;SDS011;5969;50.780;7.726;2023-10-08T04:53:03;5.95;;;3.80;;
11823;SDS011;5969;50.780;7.726;2023-10-08T04:55:33;5.97;;;3.78;;
11823;SDS011;5969;50.780;7.726;2023-10-08T04:58:00;5.70;;;4.05;;
11823;SDS011;5969;50.780;7.726;2023-10-08T05:00:30;8.73;;;4.18;;
11823;SDS011;5969;50.780;7.726;2023-10-08T05:03:08;5.10;;;3.70;;
11823;SDS011;5969;50.780;7.726;2023-10-08T05:05:40;5.97;;;3.95;;
11823;SDS011;5969;50.780;7.726;2023-10-08T05:08:33;5.20;;;3.75;;
11823;SDS011;5969;50.780;7.726;2023-10-08T05:11:12;6.18;;;4.40;;
11823;SDS011;5969;50.780;7.726;2023-10-08T05:14:02;6.97;;;3.85;;
11823;SDS011;5969;50.780;7.726;2023-10-08T05:16:31;8.40;;;4.00;;
11823;SDS011;5969;50.780;7.726;2023-10-08T05:19:14;4.90;;;3.90;;
11823;SDS011;5969;50.780;7.726;2023-10-08T05:21:59;6.30;;;3.70;;
11823;SDS011;5969;50.780;7.726;2023-10-08T05:24:44;5.28;;;3.65;;
11823;SDS011;5969;50.780;7.726;2023-10-08T05:27:31;6.38;;;4.05;;
11823;SDS011;5969;50.780;7.726;2023-10-08T05:30:22;5.60;;;4.00;;
11823;SDS011;5969;50.780;7.726;2023-10-08T05:32:54;8.15;;;4.32;;
11823;SDS011;5969;50.780;7.726;2023-10-08T05:35:38;5.60;;;3.90;;
11823;SDS011;5969;50.780;7.726;2023-10-08T05:38:15;5.50;;;4.30;;
11823;SDS011;5969;50.780;7.726;2023-10-08T05:40:50;4.72;;;3.70;;
11823;SDS011;5969;50.780;7.726;2023-10-08T05:43:36;8.73;;;4.20;;
11823;SDS011;5969;50.780;7.726;2023-10-08T05:46:20;6.50;;;4.35;;
11823;SDS011;5969;50.780;7.726;2023-10-08T05:49:12;7.68;;;4.90;;
11823;SDS011;5969;50.780;7.726;2023-10-08T05:51:56;6.40;;;4.07;;
11823;SDS011;5969;50.780;7.726;2023-10-08T05:54:37;8.30;;;4.10;;
11823;SDS011;5969;50.780;7.726;2023-10-08T05:57:24;5.32;;;3.67;;
11823;SDS011;5969;50.780;7.726;2023-10-08T06:00:04;4.07;;;3.55;;
11823;SDS011;5969;50.780;7.726;2023-10-08T06:03:07;6.57;;;4.10;;
11823;SDS011;5969;50.780;7.726;2023-10-08T06:05:35;5.65;;;4.10;;
11823;SDS011;5969;50.780;7.726;2023-10-08T06:08:11;5.97;;;3.90;;
11823;SDS011;5969;50.780;7.726;2023-10-08T06:10:39;9.35;;;4.15;;
11823;SDS011;5969;50.780;7.726;2023-10-08T06:13:21;5.95;;;3.95;;
11823;SDS011;5969;50.780;7.726;2023-10-08T06:16:09;6.25;;;4.07;;
11823;SDS011;5969;50.780;7.726;2023-10-08T06:18:38;5.97;;;3.90;;
11823;SDS011;5969;50.780;7.726;2023-10-08T06:21:05;5.88;;;4.45;;
11823;SDS011;5969;50.780;7.726;2023-10-08T06:23:33;4.75;;;3.53;;
11823;SDS011;5969;50.780;7.726;2023-10-08T06:26:01;6.78;;;4.30;;
11823;SDS011;5969;50.780;7.726;2023-10-08T06:28:40;9.25;;;4.47;;
11823;SDS011;5969;50.780;7.726;2023-10-08T06:31:09;4.97;;;3.90;;
11823;SDS011;5969;50.780;7.726;2023-10-08T06:33:41;9.50;;;4.10;;
11823;SDS011;5969;50.780;7.726;2023-10-08T06:36:09;7.10;;;4.40;;
11823;SDS011;5969;50.780;7.726;2023-10-08T06:38:41;8.23;;;3.72;;
11823;SDS011;5969;50.780;7.726;2023-10-08T06:41:09;4.88;;;3.97;;
11823;SDS011;5969;50.780;7.726;2023-10-08T06:43:41;5.50;;;4.03;;
11823;SDS011;5969;50.780;7.726;2023-10-08T06:46:11;5.82;;;4.00;;
11823;SDS011;5969;50.780;7.726;2023-10-08T06:48:39;5.20;;;3.97;;
11823;SDS011;5969;50.780;7.726;2023-10-08T06:51:08;6.47;;;4.50;;
11823;SDS011;5969;50.780;7.726;2023-10-08T06:53:38;5.95;;;4.22;;
11823;SDS011;5969;50.780;7.726;2023-10-08T06:56:05;6.35;;;4.40;;
11823;SDS011;5969;50.780;7.726;2023-10-08T06:58:34;6.00;;;3.85;;
11823;SDS011;5969;50.780;7.726;2023-10-08T07:01:02;6.05;;;3.75;;
11823;SDS011;5969;50.780;7.726;2023-10-08T07:03:33;5.80;;;4.43;;
11823;SDS011;5969;50.780;7.726;2023-10-08T07:06:03;6.03;;;4.05;;
11823;SDS011;5969;50.780;7.726;2023-10-08T07:08:42;8.07;;;4.43;;
11823;SDS011;5969;50.780;7.726;2023-10-08T07:11:11;5.28;;;3.70;;
11823;SDS011;5969;50.780;7.726;2023-10-08T07:13:39;5.50;;;4.15;;
11823;SDS011;5969;50.780;7.726;2023-10-08T07:16:08;6.18;;;4.30;;
11823;SDS011;5969;50.780;7.726;2023-10-08T07:18:37;6.22;;;4.47;;
11823;SDS011;5969;50.780;7.726;2023-10-08T07:21:04;5.88;;;4.68;;
11823;SDS011;5969;50.780;7.726;2023-10-08T07:23:37;7.40;;;4.90;;
11823;SDS011;5969;50.780;7.726;2023-10-08T07:26:21;5.88;;;4.70;;
11823;SDS011;5969;50.780;7.726;2023-10-08T07:28:50;10.05;;;5.55;;
11823;SDS011;5969;50.780;7.726;2023-10-08T07:31:19;6.43;;;4.40;;
11823;SDS011;5969;50.780;7.726;2023-10-08T07:33:47;5.47;;;3.97;;
11823;SDS011;5969;50.780;7.726;2023-10-08T07:36:21;6.05;;;4.00;;
11823;SDS011;5969;50.780;7.726;2023-10-08T07:38:48;6.35;;;4.15;;
11823;SDS011;5969;50.780;7.726;2023-10-08T07:41:15;5.13;;;4.22;;
11823;SDS011;5969;50.780;7.726;2023-10-08T07:43:44;6.80;;;4.35;;
11823;SDS011;5969;50.780;7.726;2023-10-08T07:46:19;6.65;;;4.22;;
11823;SDS011;5969;50.780;7.726;2023-10-08T07:48:46;6.53;;;4.43;;
11823;SDS011;5969;50.780;7.726;2023-10-08T07:51:13;5.45;;;3.92;;
11823;SDS011;5969;50.780;7.726;2023-10-08T07:53:40;6.22;;;4.47;;
11823;SDS011;5969;50.780;7.726;2023-10-08T07:56:07;7.88;;;4.18;;
11823;SDS011;5969;50.780;7.726;2023-10-08T07:58:36;8.10;;;5.00;;
11823;SDS011;5969;50.780;7.726;2023-10-08T08:01:03;8.45;;;4.20;;
11823;SDS011;5969;50.780;7.726;2023-10-08T08:03:33;6.88;;;4.15;;
11823;SDS011;5969;50.780;7.726;2023-10-08T08:06:04;7.68;;;4.55;;
11823;SDS011;5969;50.780;7.726;2023-10-08T08:08:32;6.72;;;4.57;;
11823;SDS011;5969;50.780;7.726;2023-10-08T08:11:00;5.45;;;4.32;;
11823;SDS011;5969;50.780;7.726;2023-10-08T08:13:31;8.02;;;4.30;;
11823;SDS011;5969;50.780;7.726;2023-10-08T08:15:59;6.60;;;4.95;;
11823;SDS011;5969;50.780;7.726;2023-10-08T08:18:35;7.05;;;4.60;;
11823;SDS011;5969;50.780;7.726;2023-10-08T08:21:03;6.20;;;4.43;;
11823;SDS011;5969;50.780;7.726;2023-10-08T08:23:30;7.13;;;4.70;;
11823;SDS011;5969;50.780;7.726;2023-10-08T08:25:58;7.28;;;4.60;;
11823;SDS011;5969;50.780;7.726;2023-10-08T08:28:38;6.07;;;4.20;;
11823;SDS011;5969;50.780;7.726;2023-10-08T08:31:06;7.78;;;4.68;;
11823;SDS011;5969;50.780;7.726;2023-10-08T08:33:41;7.93;;;4.38;;
11823;SDS011;5969;50.780;7.726;2023-10-08T08:36:25;8.40;;;5.10;;
11823;SDS011;5969;50.780;7.726;2023-10-08T08:38:52;6.68;;;4.30;;
11823;SDS011;5969;50.780;7.726;2023-10-08T08:41:19;5.80;;;4.15;;
11823;SDS011;5969;50.780;7.726;2023-10-08T08:43:49;7.45;;;4.72;;
11823;SDS011;5969;50.780;7.726;2023-10-08T08:46:23;9.13;;;4.65;;
11823;SDS011;5969;50.780;7.726;2023-10-08T08:48:53;8.88;;;4.63;;
11823;SDS011;5969;50.780;7.726;2023-10-08T08:51:20;6.18;;;4.65;;
11823;SDS011;5969;50.780;7.726;2023-10-08T08:53:48;6.85;;;4.38;;
11823;SDS011;5969;50.780;7.726;2023-10-08T08:56:17;7.95;;;4.35;;
11823;SDS011;5969;50.780;7.726;2023-10-08T08:58:45;6.00;;;4.18;;
11823;SDS011;5969;50.780;7.726;2023-10-08T09:01:14;9.20;;;4.75;;
11823;SDS011;5969;50.780;7.726;2023-10-08T09:03:41;7.68;;;4.78;;
11823;SDS011;5969;50.780;7.726;2023-10-08T09:06:09;9.35;;;5.25;;
11823;SDS011;5969;50.780;7.726;2023-10-08T09:08:37;9.95;;;4.38;;
11823;SDS011;5969;50.780;7.726;2023-10-08T09:11:07;10.30;;;4.82;;
11823;SDS011;5969;50.780;7.726;2023-10-08T09:13:35;7.30;;;4.35;;
11823;SDS011;5969;50.780;7.726;2023-10-08T09:16:06;9.77;;;7.90;;
11823;SDS011;5969;50.780;7.726;2023-10-08T09:18:34;7.63;;;4.50;;
11823;SDS011;5969;50.780;7.726;2023-10-08T09:21:08;8.93;;;4.95;;
11823;SDS011;5969;50.780;7.726;2023-10-08T09:23:40;11.98;;;5.22;;
11823;SDS011;5969;50.780;7.726;2023-10-08T09:26:12;11.50;;;5.45;;
11823;SDS011;5969;50.780;7.726;2023-10-08T09:28:40;9.20;;;4.82;;
11823;SDS011;5969;50.780;7.726;2023-10-08T09:31:10;10.15;;;5.47;;
11823;SDS011;5969;50.780;7.726;2023-10-08T09:33:38;13.35;;;5.35;;
11823;SDS011;5969;50.780;7.726;2023-10-08T09:36:06;12.07;;;5.75;;
11823;SDS011;5969;50.780;7.726;2023-10-08T09:38:36;8.48;;;5.57;;
11823;SDS011;5969;50.780;7.726;2023-10-08T09:41:04;10.57;;;5.40;;
11823;SDS011;5969;50.780;7.726;2023-10-08T09:43:33;14.40;;;6.32;;
11823;SDS011;5969;50.780;7.726;2023-10-08T09:46:05;14.23;;;6.70;;
11823;SDS011;5969;50.780;7.726;2023-10-08T09:48:33;15.43;;;6.20;;
11823;SDS011;5969;50.780;7.726;2023-10-08T09:51:03;15.70;;;6.82;;
11823;SDS011;5969;50.780;7.726;2023-10-08T09:53:32;14.93;;;6.75;;
11823;SDS011;5969;50.780;7.726;2023-10-08T09:56:07;14.38;;;7.32;;
11823;SDS011;5969;50.780;7.726;2023-10-08T09:58:39;20.25;;;8.43;;
11823;SDS011;5969;50.780;7.726;2023-10-08T10:01:08;14.90;;;7.55;;
11823;SDS011;5969;50.780;7.726;2023-10-08T10:03:38;14.02;;;7.60;;
11823;SDS011;5969;50.780;7.726;2023-10-08T10:06:11;16.08;;;8.90;;
11823;SDS011;5969;50.780;7.726;2023-10-08T10:08:40;17.67;;;9.57;;
11823;SDS011;5969;50.780;7.726;2023-10-08T10:11:09;15.82;;;8.40;;
11823;SDS011;5969;50.780;7.726;2023-10-08T10:13:40;20.15;;;10.80;;
11823;SDS011;5969;50.780;7.726;2023-10-08T10:16:09;18.65;;;10.18;;
11823;SDS011;5969;50.780;7.726;2023-10-08T10:18:38;17.40;;;10.27;;
11823;SDS011;5969;50.780;7.726;2023-10-08T10:21:24;17.70;;;10.43;;
11823;SDS011;5969;50.780;7.726;2023-10-08T10:23:52;20.02;;;10.48;;
11823;SDS011;5969;50.780;7.726;2023-10-08T10:26:23;17.88;;;10.55;;
11823;SDS011;5969;50.780;7.726;2023-10-08T10:31:40;18.10;;;10.43;;
11823;SDS011;5969;50.780;7.726;2023-10-08T10:34:10;14.85;;;8.63;;
11823;SDS011;5969;50.780;7.726;2023-10-08T10:36:38;15.93;;;9.50;;
11823;SDS011;5969;50.780;7.726;2023-10-08T10:39:06;13.93;;;9.48;;
11823;SDS011;5969;50.780;7.726;2023-10-08T10:41:42;17.77;;;11.43;;
11823;SDS011;5969;50.780;7.726;2023-10-08T10:44:09;15.10;;;9.95;;
11823;SDS011;5969;50.780;7.726;2023-10-08T10:46:38;16.02;;;9.73;;
11823;SDS011;5969;50.780;7.726;2023-10-08T10:49:07;17.45;;;9.20;;
11823;SDS011;5969;50.780;7.726;2023-10-08T10:51:43;19.88;;;11.15;;
11823;SDS011;5969;50.780;7.726;2023-10-08T10:54:12;17.45;;;10.23;;
11823;SDS011;5969;50.780;7.726;2023-10-08T10:56:47;20.48;;;10.95;;
11823;SDS011;5969;50.780;7.726;2023-10-08T10:59:28;16.30;;;9.48;;
11823;SDS011;5969;50.780;7.726;2023-10-08T11:02:01;17.52;;;9.25;;
11823;SDS011;5969;50.780;7.726;2023-10-08T11:04:33;20.27;;;10.63;;
11823;SDS011;5969;50.780;7.726;2023-10-08T11:07:12;15.23;;;10.20;;
11823;SDS011;5969;50.780;7.726;2023-10-08T11:09:41;15.52;;;9.60;;
11823;SDS011;5969;50.780;7.726;2023-10-08T11:12:12;20.70;;;10.65;;
11823;SDS011;5969;50.780;7.726;2023-10-08T11:14:43;17.02;;;9.50;;
11823;SDS011;5969;50.780;7.726;2023-10-08T11:17:13;16.48;;;9.38;;
11823;SDS011;5969;50.780;7.726;2023-10-08T11:19:40;15.80;;;9.77;;
11823;SDS011;5969;50.780;7.726;2023-10-08T11:22:11;16.88;;;9.75;;
11823;SDS011;5969;50.780;7.726;2023-10-08T11:24:41;18.77;;;10.32;;
11823;SDS011;5969;50.780;7.726;2023-10-08T11:27:14;16.00;;;9.55;;
11823;SDS011;5969;50.780;7.726;2023-10-08T11:29:53;20.02;;;9.82;;
11823;SDS011;5969;50.780;7.726;2023-10-08T11:32:23;17.27;;;9.23;;
11823;SDS011;5969;50.780;7.726;2023-10-08T11:34:54;13.48;;;9.15;;
11823;SDS011;5969;50.780;7.726;2023-10-08T11:37:27;13.90;;;8.25;;
11823;SDS011;5969;50.780;7.726;2023-10-08T11:39:54;20.48;;;10.57;;
11823;SDS011;5969;50.780;7.726;2023-10-08T11:42:24;16.88;;;9.82;;
11823;SDS011;5969;50.780;7.726;2023-10-08T11:45:09;15.52;;;9.15;;
11823;SDS011;5969;50.780;7.726;2023-10-08T11:47:49;15.10;;;10.27;;
11823;SDS011;5969;50.780;7.726;2023-10-08T11:50:22;18.10;;;9.88;;
11823;SDS011;5969;50.780;7.726;2023-10-08T11:52:56;20.75;;;9.40;;
11823;SDS011;5969;50.780;7.726;2023-10-08T11:55:26;21.60;;;11.07;;
11823;SDS011;5969;50.780;7.726;2023-10-08T11:57:55;21.40;;;10.45;;
11823;SDS011;5969;50.780;7.726;2023-10-08T12:00:22;17.25;;;10.43;;
11823;SDS011;5969;50.780;7.726;2023-10-08T12:02:51;16.40;;;9.98;;
11823;SDS011;5969;50.780;7.726;2023-10-08T12:05:19;17.05;;;9.43;;
11823;SDS011;5969;50.780;7.726;2023-10-08T12:07:48;17.13;;;10.93;;
11823;SDS011;5969;50.780;7.726;2023-10-08T12:10:16;16.08;;;10.68;;
11823;SDS011;5969;50.780;7.726;2023-10-08T12:12:47;14.35;;;10.38;;
11823;SDS011;5969;50.780;7.726;2023-10-08T12:15:15;17.88;;;11.07;;
11823;SDS011;5969;50.780;7.726;2023-10-08T12:17:46;18.02;;;11.48;;
11823;SDS011;5969;50.780;7.726;2023-10-08T12:20:33;14.70;;;10.13;;
11823;SDS011;5969;50.780;7.726;2023-10-08T12:23:02;15.68;;;10.40;;
11823;SDS011;5969;50.780;7.726;2023-10-08T12:25:29;14.65;;;10.07;;
11823;SDS011;5969;50.780;7.726;2023-10-08T12:27:57;16.98;;;11.48;;
11823;SDS011;5969;50.780;7.726;2023-10-08T12:30:28;14.55;;;9.98;;
11823;SDS011;5969;50.780;7.726;2023-10-08T12:32:57;15.25;;;10.68;;
11823;SDS011;5969;50.780;7.726;2023-10-08T12:35:24;22.58;;;10.70;;
11823;SDS011;5969;50.780;7.726;2023-10-08T12:37:51;22.27;;;10.98;;
11823;SDS011;5969;50.780;7.726;2023-10-08T12:40:20;21.45;;;11.55;;
11823;SDS011;5969;50.780;7.726;2023-10-08T12:42:48;15.45;;;10.27;;
11823;SDS011;5969;50.780;7.726;2023-10-08T12:45:15;15.90;;;12.07;;
11823;SDS011;5969;50.780;7.726;2023-10-08T12:47:47;18.42;;;10.93;;
11823;SDS011;5969;50.780;7.726;2023-10-08T12:50:15;20.42;;;11.88;;
11823;SDS011;5969;50.780;7.726;2023-10-08T12:52:43;19.95;;;11.10;;
11823;SDS011;5969;50.780;7.726;2023-10-08T12:55:18;14.82;;;10.32;;
11823;SDS011;5969;50.780;7.726;2023-10-08T12:57:49;17.27;;;11.13;;
11823;SDS011;5969;50.780;7.726;2023-10-08T13:00:20;16.83;;;10.40;;
11823;SDS011;5969;50.780;7.726;2023-10-08T13:02:50;17.27;;;9.73;;
11823;SDS011;5969;50.780;7.726;2023-10-08T13:05:19;13.35;;;9.35;;
11823;SDS011;5969;50.780;7.726;2023-10-08T13:07:52;18.08;;;10.00;;
11823;SDS011;5969;50.780;7.726;2023-10-08T13:10:20;16.17;;;9.75;;
11823;SDS011;5969;50.780;7.726;2023-10-08T13:12:47;16.77;;;10.15;;
11823;SDS011;5969;50.780;7.726;2023-10-08T13:15:15;15.15;;;9.73;;
11823;SDS011;5969;50.780;7.726;2023-10-08T13:17:42;13.73;;;9.52;;
11823;SDS011;5969;50.780;7.726;2023-10-08T13:20:12;14.90;;;10.02;;
11823;SDS011;5969;50.780;7.726;2023-10-08T13:22:42;17.98;;;9.57;;
11823;SDS011;5969;50.780;7.726;2023-10-08T13:25:09;19.35;;;10.70;;
11823;SDS011;5969;50.780;7.726;2023-10-08T13:27:37;15.48;;;9.18;;
11823;SDS011;5969;50.780;7.726;2023-10-08T13:30:05;16.67;;;9.20;;
11823;SDS011;5969;50.780;7.726;2023-10-08T13:32:34;11.98;;;9.10;;
11823;SDS011;5969;50.780;7.726;2023-10-08T13:35:02;12.63;;;8.98;;
11823;SDS011;5969;50.780;7.726;2023-10-08T13:37:32;12.48;;;9.77;;
11823;SDS011;5969;50.780;7.726;2023-10-08T13:40:00;19.88;;;10.32;;
11823;SDS011;5969;50.780;7.726;2023-10-08T13:42:27;16.08;;;9.50;;
11823;SDS011;5969;50.780;7.726;2023-10-08T13:44:54;15.40;;;10.13;;
11823;SDS011;5969;50.780;7.726;2023-10-08T13:47:24;20.20;;;11.40;;
11823;SDS011;5969;50.780;7.726;2023-10-08T13:49:53;14.63;;;9.80;;
11823;SDS011;5969;50.780;7.726;2023-10-08T13:52:22;17.40;;;10.13;;
11823;SDS011;5969;50.780;7.726;2023-10-08T13:54:53;13.55;;;9.57;;
11823;SDS011;5969;50.780;7.726;2023-10-08T13:57:20;17.75;;;9.65;;
11823;SDS011;5969;50.780;7.726;2023-10-08T13:59:50;15.40;;;10.18;;
11823;SDS011;5969;50.780;7.726;2023-10-08T14:02:18;14.02;;;9.93;;
11823;SDS011;5969;50.780;7.726;2023-10-08T14:04:46;18.02;;;10.27;;
11823;SDS011;5969;50.780;7.726;2023-10-08T14:07:15;18.13;;;10.07;;
11823;SDS011;5969;50.780;7.726;2023-10-08T14:09:43;15.88;;;10.75;;
11823;SDS011;5969;50.780;7.726;2023-10-08T14:12:12;13.82;;;10.25;;
11823;SDS011;5969;50.780;7.726;2023-10-08T14:14:40;14.55;;;9.00;;
11823;SDS011;5969;50.780;7.726;2023-10-08T14:17:09;17.10;;;9.93;;
11823;SDS011;5969;50.780;7.726;2023-10-08T14:19:40;15.05;;;9.57;;
11823;SDS011;5969;50.780;7.726;2023-10-08T14:22:16;14.85;;;9.43;;
11823;SDS011;5969;50.780;7.726;2023-10-08T14:24:47;14.30;;;8.90;;
11823;SDS011;5969;50.780;7.726;2023-10-08T14:27:25;16.58;;;9.95;;
11823;SDS011;5969;50.780;7.726;2023-10-08T14:29:56;16.88;;;10.02;;
11823;SDS011;5969;50.780;7.726;2023-10-08T14:32:26;16.80;;;9.50;;
11823;SDS011;5969;50.780;7.726;2023-10-08T14:34:53;14.00;;;9.23;;
11823;SDS011;5969;50.780;7.726;2023-10-08T14:37:41;13.60;;;9.57;;
11823;SDS011;5969;50.780;7.726;2023-10-08T14:40:26;15.52;;;8.57;;
11823;SDS011;5969;50.780;7.726;2023-10-08T14:43:12;15.95;;;10.07;;
11823;SDS011;5969;50.780;7.726;2023-10-08T14:45:41;16.17;;;10.07;;
11823;SDS011;5969;50.780;7.726;2023-10-08T14:48:11;15.02;;;8.93;;
11823;SDS011;5969;50.780;7.726;2023-10-08T14:50:39;14.38;;;8.65;;
11823;SDS011;5969;50.780;7.726;2023-10-08T14:53:07;13.80;;;9.18;;
11823;SDS011;5969;50.780;7.726;2023-10-08T14:55:35;18.38;;;10.25;;
11823;SDS011;5969;50.780;7.726;2023-10-08T14:58:02;15.18;;;8.93;;
11823;SDS011;5969;50.780;7.726;2023-10-08T15:00:34;15.45;;;9.57;;
11823;SDS011;5969;50.780;7.726;2023-10-08T15:03:07;13.77;;;8.25;;
11823;SDS011;5969;50.780;7.726;2023-10-08T15:05:36;12.45;;;8.98;;
11823;SDS011;5969;50.780;7.726;2023-10-08T15:08:05;12.63;;;9.05;;
11823;SDS011;5969;50.780;7.726;2023-10-08T15:10:35;16.17;;;9.27;;
11823;SDS011;5969;50.780;7.726;2023-10-08T15:13:02;15.35;;;10.18;;
11823;SDS011;5969;50.780;7.726;2023-10-08T15:15:29;14.23;;;8.57;;
11823;SDS011;5969;50.780;7.726;2023-10-08T15:18:01;14.13;;;9.20;;
11823;SDS011;5969;50.780;7.726;2023-10-08T15:20:28;14.98;;;9.13;;
11823;SDS011;5969;50.780;7.726;2023-10-08T15:22:57;15.45;;;9.48;;